METAR Formatted Surface Weather Observation
Issued by NWS

Home | Current Version | Previous Version | Text Only | Print | Product List | Glossary On
Versions: 1 2 3
000
SAUS45 KFGZ 271357
MTRRQE
METAR KRQE 271353Z AUTO 00000KT 10SM CLR M10/M13 A3051 RMK AO2
SLP337 T11001133 TSNO



USA.gov is the U.S. government's official web portal to all federal, state and local government web resources and services.